Аэропорт: Челябинск. Челябинск

ICAO: USCC

METAR:
2019-11-21 01:30:00
USCC 210130Z 27004MPS CAVOK M17/M20 Q1040 R27/000060 NOSIG RMK QFE760
METAR:
2019-11-20 23:00:00
TAF USCC 202300Z 2100/2124 28003G08MPS 3100 BR SCT011 TEMPO 2100/2105 29005G10MPS FM210500 30005G10MPS 9999 NSW SCT015 TEMPO 2105/2115 32007G15MPS